Peru, VT (05152)

11:35 AM EDT on May 25, 2015 (GMT -0400)
half way up Stratton Mountain | | Change Station
CLOSE
Current Station
Personal Weather Station
Location: Bondville, VT
Elevation: 2550 ft
Nearby Weather Stations

Elev 2550 ft 43.11 °N, 72.92 °W | Updated 8 seconds ago

Overcast
Overcast
65.7 °F
Feels Like 65.7 °F
N
3.0
Wind Variable Wind from NW
Gusts 3.0 mph

Today
High -- | Low -- °F
--% Chance of Precip.
Yesterday
High -- | Low -- °F
Precip. -- in
5:19 AM 8:18 PM
Waxing Crescent, 49% visible
Pressure 30.22 in
Visibility 10.0 miles
Clouds Mostly Cloudy 10000 ft
Overcast 12000 ft
Dew Point 53 °F
Humidity 64%
Rainfall 0.00 in
Snow Depth Not available.
UV 3 out of 12
Pollen 8.50 out of 12
Air Quality Not available.
Flu Activity Local Activity
METAR KDDH 251454Z AUTO 00000KT 10SM BKN100 OVC120 21/13 A3023 RMK AO2 SLP234 60000 T02110128 58009

More Conditions Fewer Conditions

Pressure 30.22 in
Visibility 10.0 miles
Clouds Mostly Cloudy 10000 ft
Overcast 12000 ft
Dew Point 53 °F
Humidity 64%
Rainfall 0.00 in
Snow Depth Not available.
UV 3 out of 12
Pollen 8.50 out of 12
Air Quality Not available.
Flu Activity Local Activity
METAR KDDH 251454Z AUTO 00000KT 10SM BKN100 OVC120 21/13 A3023 RMK AO2 SLP234 60000 T02110128 58009

More Conditions Fewer Conditions

10-Day Weather Forecast

Almanac

Astronomy

May. 25, 2015 Rise Set
Actual Time
Civil Twilight
Nautical Twilight
Astronomical Twilight
Moon
Length of Visible Light
Length of Day
Tomorrow will be .
, % of the Moon is Illuminated

Today's Extremes

State Highs State Lows

Community

WunderPhotos

Upload Photos

1,824,030 photos uploaded!

WunderBlogs® & News

Nearby

Air Quality

  Air Quality AQ Index Pollutant
Not available.

Snow Depth

Station Depth Elevation

Earthquake Activity

City Distance Mag. Time & Date
Minimum magnitude displayed is 2.5.

Coastal Water Temperatures

Place Temperature

Stations

Nearby Weather Stations

Station Location Temp. Windchill Dew Point Humidity Wind Precip. Elev Updated Type